Time;durP1;ratioP1;P1;durP2;ratioP2;P2;SDS_P1;SDS_P2;PMS_P1;PMS_P2;Temp;Humidity;BMP_temperature;BMP_pressure;BME280_temperature;BME280_humidity;BME280_pressure;Samples;Min_cycle;Max_cycle;Signal;HPM_P1;HPM_P2
2024/03/13 00:01:35;;;;;;;37.10;25.85;;;;;;;-146.18;100.00;67994.34;10464419;27;20043;-77
2024/03/13 00:06:32;;;;;;;34.17;24.98;;;;;;;-146.18;100.00;67994.34;10459227;27;20042;-77
2024/03/13 00:11:28;;;;;;;37.78;26.40;;;;;;;-146.18;100.00;67994.34;10465022;27;20096;-78
2024/03/13 00:16:25;;;;;;;37.58;25.70;;;;;;;-146.18;100.00;67994.34;10460800;27;20049;-74
2024/03/13 00:21:22;;;;;;;36.47;26.88;;;;;;;-146.18;100.00;67994.34;10459049;27;20579;-74
2024/03/13 00:26:21;;;;;;;40.05;26.13;;;;;;;-146.18;100.00;67994.34;10437623;27;20064;-74
2024/03/13 00:31:18;;;;;;;42.08;26.27;;;;;;;-146.18;100.00;67994.34;10456669;27;20038;-78
2024/03/13 00:36:14;;;;;;;35.42;26.00;;;;;;;-146.18;100.00;67994.34;10455806;27;20459;-74
2024/03/13 00:41:11;;;;;;;39.97;26.20;;;;;;;-146.18;100.00;67994.34;10444640;27;20035;-90
2024/03/13 00:46:07;;;;;;;36.85;27.13;;;;;;;-146.18;100.00;67994.34;10454998;27;20087;-77
2024/03/13 00:51:04;;;;;;;36.70;26.30;;;;;;;-146.18;100.00;67994.34;10452063;27;20417;-83
2024/03/13 00:56:01;;;;;;;38.88;27.33;;;;;;;-146.18;100.00;67994.34;10463658;27;20091;-75
2024/03/13 01:00:58;;;;;;;42.08;28.17;;;;;;;-146.18;100.00;67994.34;10450138;27;20047;-78
2024/03/13 01:05:56;;;;;;;47.80;29.80;;;;;;;-146.18;100.00;67994.34;10453814;27;20086;-76
2024/03/13 01:10:53;;;;;;;39.30;27.70;;;;;;;-146.18;100.00;67994.34;10454866;27;20043;-80
2024/03/13 01:15:51;;;;;;;41.25;28.27;;;;;;;-146.18;100.00;67994.34;10446705;27;20070;-80
2024/03/13 01:20:48;;;;;;;37.80;28.02;;;;;;;-146.18;100.00;67994.34;10447999;27;20464;-79
2024/03/13 01:25:47;;;;;;;36.55;26.70;;;;;;;-146.18;100.00;67994.34;10457057;27;20045;-80
2024/03/13 01:30:43;;;;;;;45.30;28.05;;;;;;;-146.18;100.00;67994.34;10444573;27;20047;-79
2024/03/13 01:35:41;;;;;;;35.03;27.42;;;;;;;-146.18;100.00;67994.34;10457286;27;20042;-79
2024/03/13 01:56:59;;;;;;;39.20;26.58;;;;;;;-146.18;100.00;67994.34;10439620;27;20457;-75
2024/03/13 02:07:13;;;;;;;42.40;28.48;;;;;;;-146.18;100.00;67994.34;10457327;27;20035;-80
2024/03/13 02:12:10;;;;;;;40.17;28.00;;;;;;;-146.18;100.00;67994.34;10454112;27;20110;-77
2024/03/13 02:17:07;;;;;;;35.75;26.40;;;;;;;-146.18;100.00;67994.34;10453836;27;20039;-80
2024/03/13 02:22:04;;;;;;;36.45;26.40;;;;;;;-146.18;100.00;67994.34;10446692;27;20042;-77
2024/03/13 02:27:10;;;;;;;44.25;28.25;;;;;;;-146.18;100.00;67994.34;10438669;27;20065;-77
2024/03/13 02:32:07;;;;;;;41.08;29.90;;;;;;;-146.18;100.00;67994.34;10444160;27;20568;-76
2024/03/13 02:37:03;;;;;;;40.92;27.00;;;;;;;-146.18;100.00;67994.34;10452699;27;20414;-77
2024/03/13 02:42:01;;;;;;;40.85;27.92;;;;;;;-146.18;100.00;67994.34;10459657;27;20043;-77
2024/03/13 02:46:58;;;;;;;39.30;27.48;;;;;;;-146.18;100.00;67994.34;10462390;27;20046;-78
2024/03/13 02:51:55;;;;;;;40.47;28.45;;;;;;;-146.18;100.00;67994.34;10455194;27;20058;-77
2024/03/13 02:56:52;;;;;;;40.85;28.30;;;;;;;-146.18;100.00;67994.34;10466127;27;20134;-74
2024/03/13 03:01:48;;;;;;;40.88;29.20;;;;;;;-146.18;100.00;67994.34;10459983;27;20042;-79
2024/03/13 03:06:45;;;;;;;43.78;31.10;;;;;;;-146.18;100.00;67994.34;10476562;27;20051;-74
2024/03/13 03:11:43;;;;;;;42.00;28.15;;;;;;;-146.18;100.00;67994.34;10466081;27;20035;-73
2024/03/13 03:16:39;;;;;;;39.95;28.35;;;;;;;-146.18;100.00;67994.34;10460905;27;20046;-77
2024/03/13 03:21:37;;;;;;;43.65;28.17;;;;;;;-146.18;100.00;67994.34;10464331;27;20035;-75
2024/03/13 03:26:34;;;;;;;44.42;29.42;;;;;;;-146.18;100.00;67994.34;10458530;27;20042;-76
2024/03/13 03:31:30;;;;;;;43.47;29.15;;;;;;;-146.18;100.00;67994.34;10461134;27;20042;-74
2024/03/13 03:36:27;;;;;;;39.47;28.33;;;;;;;-146.18;100.00;67994.34;10466178;27;20039;-73
2024/03/13 03:41:23;;;;;;;45.90;27.80;;;;;;;-146.18;100.00;67994.34;10466163;27;20038;-75
2024/03/13 03:46:20;;;;;;;46.80;30.63;;;;;;;-146.18;100.00;67994.34;10468348;27;20425;-76
2024/03/13 03:51:18;;;;;;;45.88;30.48;;;;;;;-146.18;100.00;67994.34;10458169;27;20042;-77
2024/03/13 03:56:14;;;;;;;45.95;29.52;;;;;;;-146.18;100.00;67994.34;10473751;27;20051;-78
2024/03/13 04:01:12;;;;;;;42.33;30.25;;;;;;;-146.18;100.00;67994.34;10474037;27;20044;-75
2024/03/13 04:06:08;;;;;;;47.90;31.48;;;;;;;-146.18;100.00;67994.34;10459563;27;20073;-77
2024/03/13 04:11:05;;;;;;;49.97;32.75;;;;;;;-146.18;100.00;67994.34;10462645;27;20045;-78
2024/03/13 04:16:04;;;;;;;46.92;30.60;;;;;;;-146.18;100.00;67994.34;10455478;27;20050;-77
2024/03/13 04:21:01;;;;;;;43.58;29.55;;;;;;;-146.18;100.00;67994.34;10460072;27;20043;-78
2024/03/13 04:26:03;;;;;;;44.95;29.73;;;;;;;-146.18;100.00;67994.34;10465629;27;20043;-82
2024/03/13 04:31:02;;;;;;;48.38;31.50;;;;;;;-146.18;100.00;67994.34;10455954;27;20750;-72
2024/03/13 04:35:59;;;;;;;51.00;31.58;;;;;;;-146.18;100.00;67994.34;10462418;27;20136;-74
2024/03/13 04:40:55;;;;;;;48.13;31.08;;;;;;;-146.18;100.00;67994.34;10465681;27;20041;-73
2024/03/13 04:45:53;;;;;;;45.53;31.00;;;;;;;-146.18;100.00;67994.34;10446272;27;20066;-73
2024/03/13 04:50:50;;;;;;;46.42;31.48;;;;;;;-146.18;100.00;67994.34;10448302;27;20442;-73
2024/03/13 04:55:46;;;;;;;53.63;31.17;;;;;;;-146.18;100.00;67994.34;10450069;27;20108;-74
2024/03/13 05:00:44;;;;;;;47.45;29.95;;;;;;;-146.18;100.00;67994.34;10456649;27;20092;-74
2024/03/13 05:05:45;;;;;;;52.03;31.70;;;;;;;-146.18;100.00;67994.34;10456010;27;20513;-77
2024/03/13 05:10:45;;;;;;;47.25;30.70;;;;;;;-146.18;100.00;67994.34;10455974;27;20045;-75
2024/03/13 05:15:43;;;;;;;44.17;30.55;;;;;;;-146.18;100.00;67994.34;10465240;27;20042;-77
2024/03/13 05:20:40;;;;;;;50.03;31.77;;;;;;;-146.18;100.00;67994.34;10447918;27;20395;-76
2024/03/13 05:25:36;;;;;;;47.40;32.08;;;;;;;-146.18;100.00;67994.34;10457681;27;20050;-76
2024/03/13 05:30:33;;;;;;;48.67;31.48;;;;;;;-146.18;100.00;67994.34;10448905;27;20052;-76
2024/03/13 05:35:29;;;;;;;49.53;31.65;;;;;;;-146.18;100.00;67994.34;10463131;27;20038;-76
2024/03/13 05:40:26;;;;;;;53.45;31.95;;;;;;;-146.18;100.00;67994.34;10463090;27;20528;-75
2024/03/13 05:45:23;;;;;;;54.67;32.65;;;;;;;-146.18;100.00;67994.34;10446378;27;20577;-76
2024/03/13 05:50:20;;;;;;;50.50;31.73;;;;;;;-146.18;100.00;67994.34;10453452;27;20043;-76
2024/03/13 05:55:16;;;;;;;48.78;30.73;;;;;;;-146.18;100.00;67994.34;10440043;27;20046;-74
2024/03/13 06:00:18;;;;;;;52.47;30.90;;;;;;;-146.18;100.00;67994.34;10449571;27;20043;-76
2024/03/13 06:05:17;;;;;;;57.78;32.60;;;;;;;-146.18;100.00;67994.34;10461819;27;20073;-74
2024/03/13 06:10:14;;;;;;;55.60;34.13;;;;;;;-146.18;100.00;67994.34;10457346;27;20047;-74
2024/03/13 06:15:14;;;;;;;59.67;32.00;;;;;;;-146.18;100.00;67994.34;10443226;27;20053;-77
2024/03/13 06:20:13;;;;;;;52.40;33.75;;;;;;;-146.18;100.00;67994.34;10451041;27;20110;-74
2024/03/13 06:25:12;;;;;;;49.28;32.75;;;;;;;-146.18;100.00;67994.34;10463478;27;20784;-74
2024/03/13 06:30:09;;;;;;;55.88;32.55;;;;;;;-146.18;100.00;67994.34;10443450;27;20126;-74
2024/03/13 06:35:06;;;;;;;48.33;32.55;;;;;;;-146.18;100.00;67994.34;10454732;27;20104;-74
2024/03/13 06:40:03;;;;;;;57.72;32.47;;;;;;;-146.18;100.00;67994.34;10465552;27;20043;-74
2024/03/13 06:45:00;;;;;;;54.85;34.05;;;;;;;-146.18;100.00;67994.34;10459804;27;20043;-74
2024/03/13 06:49:57;;;;;;;57.88;32.85;;;;;;;-146.18;100.00;67994.34;10454908;27;20035;-74
2024/03/13 06:54:54;;;;;;;55.05;34.20;;;;;;;-146.18;100.00;67994.34;10458567;27;20043;-72
2024/03/13 06:59:51;;;;;;;56.72;32.95;;;;;;;-146.18;100.00;67994.34;10457727;27;20038;-74
2024/03/13 07:04:49;;;;;;;51.03;32.70;;;;;;;-146.18;100.00;67994.34;10464805;27;20100;-74
2024/03/13 07:09:48;;;;;;;53.92;33.22;;;;;;;-146.18;100.00;67994.34;10457072;27;20498;-76
2024/03/13 07:14:44;;;;;;;49.85;31.50;;;;;;;-146.18;100.00;67994.34;10451852;27;20074;-74
2024/03/13 07:19:41;;;;;;;59.28;35.78;;;;;;;-146.18;100.00;67994.34;10465488;27;20036;-73
2024/03/13 07:24:37;;;;;;;52.60;32.28;;;;;;;-146.18;100.00;67994.34;10462588;27;20035;-74
2024/03/13 07:29:35;;;;;;;55.75;32.40;;;;;;;-146.18;100.00;67994.34;10472064;27;20039;-74
2024/03/13 07:34:32;;;;;;;53.95;33.42;;;;;;;-146.18;100.00;67994.34;10455477;27;20038;-74
2024/03/13 07:39:30;;;;;;;59.75;33.47;;;;;;;-146.18;100.00;67994.34;10464178;27;20779;-74
2024/03/13 07:44:27;;;;;;;50.95;32.85;;;;;;;-146.18;100.00;67994.34;10465699;27;20520;-74
2024/03/13 07:49:25;;;;;;;56.67;32.15;;;;;;;-146.18;100.00;67994.34;10446820;27;20410;-73
2024/03/13 07:54:22;;;;;;;46.50;29.95;;;;;;;-146.18;100.00;67994.34;10470580;27;20126;-75
2024/03/13 07:59:19;;;;;;;53.38;31.45;;;;;;;-146.18;100.00;67994.34;10472724;27;20356;-74
2024/03/13 08:04:15;;;;;;;55.38;30.83;;;;;;;-146.18;100.00;67994.34;10456839;27;20531;-74
2024/03/13 08:09:12;;;;;;;53.50;30.40;;;;;;;-146.18;100.00;67994.34;10450881;27;20095;-74
2024/03/13 08:14:26;;;;;;;46.20;28.15;;;;;;;-146.18;100.00;67994.34;10448919;27;20125;-75
2024/03/13 08:19:40;;;;;;;57.88;28.55;;;;;;;-146.18;100.00;67994.34;10454178;27;20055;-75
2024/03/13 08:24:54;;;;;;;43.63;26.70;;;;;;;-146.18;100.00;67994.34;10454781;27;20027;-73
2024/03/13 08:30:09;;;;;;;50.30;28.38;;;;;;;-146.18;100.00;67994.34;10452938;27;20122;-74
2024/03/13 08:35:24;;;;;;;44.90;26.83;;;;;;;-146.18;100.00;67994.34;10462656;27;20035;-74
2024/03/13 08:40:39;;;;;;;38.90;24.60;;;;;;;-146.18;100.00;67994.34;10456580;27;20034;-74
2024/03/13 08:45:53;;;;;;;43.85;26.55;;;;;;;-146.18;100.00;67994.34;10454941;27;20490;-75
2024/03/13 08:51:09;;;;;;;47.45;26.33;;;;;;;-146.18;100.00;67994.34;10442980;27;20422;-74
2024/03/13 08:56:24;;;;;;;43.78;24.75;;;;;;;-146.18;100.00;67994.34;10462168;27;20035;-73
2024/03/13 09:01:44;;;;;;;38.60;26.02;;;;;;;-146.18;100.00;67994.34;10467838;27;20035;-74
2024/03/13 09:06:58;;;;;;;35.90;24.45;;;;;;;-146.18;100.00;67994.34;10461786;27;20043;-74
2024/03/13 09:11:55;;;;;;;42.83;26.13;;;;;;;-146.18;100.00;67994.34;10449434;27;20051;-74
2024/03/13 09:16:51;;;;;;;45.28;25.45;;;;;;;-146.18;100.00;67994.34;10451193;27;20039;-74
2024/03/13 09:21:48;;;;;;;41.30;24.35;;;;;;;-146.18;100.00;67994.34;10463864;27;20043;-74
2024/03/13 09:26:45;;;;;;;40.47;25.23;;;;;;;-146.18;100.00;67994.34;10449053;27;20049;-74
2024/03/13 09:31:42;;;;;;;39.08;24.17;;;;;;;-146.18;100.00;67994.34;10447031;27;20560;-76
2024/03/13 09:36:38;;;;;;;43.47;23.85;;;;;;;-146.18;100.00;67994.34;10444179;27;20406;-78
2024/03/13 09:41:35;;;;;;;35.88;21.02;;;;;;;-146.18;100.00;67994.34;10450770;27;20125;-75
2024/03/13 09:46:32;;;;;;;29.35;20.17;;;;;;;-146.18;100.00;67994.34;10444376;27;20179;-77
2024/03/13 09:51:29;;;;;;;30.88;20.55;;;;;;;-146.18;100.00;67994.34;10460582;27;20260;-77
2024/03/13 09:56:28;;;;;;;28.83;20.05;;;;;;;-146.18;100.00;67994.34;10455552;27;20051;-76
2024/03/13 10:01:31;;;;;;;29.27;19.70;;;;;;;-146.18;100.00;67994.34;10454692;27;20054;-76
2024/03/13 10:06:32;;;;;;;31.48;19.42;;;;;;;-146.18;100.00;67994.34;10436252;27;20043;-74
2024/03/13 10:11:30;;;;;;;31.42;19.77;;;;;;;-146.18;100.00;67994.34;10455297;27;20517;-75
2024/03/13 10:16:33;;;;;;;27.23;18.25;;;;;;;-146.18;100.00;67994.34;10443219;27;20039;-75
2024/03/13 10:21:30;;;;;;;31.30;20.83;;;;;;;-146.18;100.00;67994.34;10450037;27;20053;-77
2024/03/13 10:26:27;;;;;;;29.42;20.42;;;;;;;-146.18;100.00;67994.34;10456874;27;20043;-75
2024/03/13 10:31:25;;;;;;;32.47;19.88;;;;;;;-146.18;100.00;67994.34;10461292;27;20103;-75
2024/03/13 10:36:22;;;;;;;28.70;19.75;;;;;;;-146.18;100.00;67994.34;10448834;27;20125;-75
2024/03/13 10:41:19;;;;;;;32.70;19.08;;;;;;;-146.18;100.00;67994.34;10454642;27;20039;-77
2024/03/13 10:46:16;;;;;;;26.40;17.60;;;;;;;-146.18;100.00;67994.34;10463617;27;20136;-75
2024/03/13 10:51:14;;;;;;;22.85;15.63;;;;;;;-146.18;100.00;67994.34;10447461;27;20047;-75
2024/03/13 10:56:14;;;;;;;19.88;14.38;;;;;;;-146.18;100.00;67994.34;10451456;27;20233;-76
2024/03/13 11:01:13;;;;;;;21.40;15.90;;;;;;;-146.18;100.00;67994.34;10451535;27;20112;-76
2024/03/13 11:06:13;;;;;;;21.02;16.27;;;;;;;-146.18;100.00;67994.34;10457019;27;20109;-75
2024/03/13 11:11:12;;;;;;;21.48;14.93;;;;;;;-146.18;100.00;67994.34;10448882;27;20043;-75
2024/03/13 11:16:21;;;;;;;20.50;15.30;;;;;;;-146.18;100.00;67994.34;10466804;27;20466;-78
2024/03/13 11:21:23;;;;;;;18.58;14.65;;;;;;;-146.18;100.00;67994.34;10467455;27;20137;-75
2024/03/13 11:26:22;;;;;;;19.73;15.00;;;;;;;-146.18;100.00;67994.34;10447673;27;20053;-76
2024/03/13 11:31:19;;;;;;;23.55;17.35;;;;;;;-146.18;100.00;67994.34;10464492;27;20118;-75
2024/03/13 11:36:15;;;;;;;22.45;15.50;;;;;;;-146.18;100.00;67994.34;10457828;27;20039;-76
2024/03/13 11:41:14;;;;;;;20.30;15.90;;;;;;;-146.18;100.00;67994.34;10459454;27;20082;-76
2024/03/13 11:46:12;;;;;;;20.90;15.85;;;;;;;-146.18;100.00;67994.34;10454150;27;20049;-75
2024/03/13 11:51:11;;;;;;;19.25;15.00;;;;;;;-146.18;100.00;67994.34;10459320;27;20042;-76
2024/03/13 11:56:13;;;;;;;21.35;15.57;;;;;;;-146.18;100.00;67994.34;10467078;27;20035;-75
2024/03/13 12:01:12;;;;;;;18.23;15.48;;;;;;;-146.18;100.00;67994.34;10452737;27;20054;-75
2024/03/13 12:06:37;;;;;;;18.15;15.55;;;;;;;-146.18;100.00;67994.34;10448900;27;20047;-75
2024/03/13 12:11:35;;;;;;;17.38;14.77;;;;;;;-146.18;100.00;67994.34;10453355;27;20062;-76
2024/03/13 12:16:33;;;;;;;15.88;14.13;;;;;;;-146.18;100.00;67994.34;10453238;27;20047;-75
2024/03/13 12:21:30;;;;;;;17.20;14.32;;;;;;;-146.18;100.00;67994.34;10462741;27;20055;-75
2024/03/13 12:26:28;;;;;;;18.50;14.98;;;;;;;-146.18;100.00;67994.34;10461617;27;20043;-75
2024/03/13 12:31:26;;;;;;;17.50;13.57;;;;;;;-146.18;100.00;67994.34;10447090;27;20696;-75
2024/03/13 12:36:22;;;;;;;18.40;15.25;;;;;;;-146.18;100.00;67994.34;10451881;27;20042;-75
2024/03/13 12:41:19;;;;;;;18.02;15.32;;;;;;;-146.18;100.00;67994.34;10451437;27;20038;-77
2024/03/13 12:46:15;;;;;;;23.92;16.85;;;;;;;-146.18;100.00;67994.34;10456594;27;20090;-76
2024/03/13 12:51:12;;;;;;;20.38;16.95;;;;;;;-146.18;100.00;67994.34;10457847;27;20430;-75
2024/03/13 12:56:12;;;;;;;21.08;17.13;;;;;;;-146.18;100.00;67994.34;10452653;27;20043;-75
2024/03/13 13:01:09;;;;;;;22.77;17.98;;;;;;;-146.18;100.00;67994.34;10450979;27;20035;-75
2024/03/13 13:06:12;;;;;;;19.50;16.17;;;;;;;-146.18;100.00;67994.34;10457846;27;20039;-76
2024/03/13 13:11:11;;;;;;;22.17;17.45;;;;;;;-146.18;100.00;67994.34;10454713;27;20484;-75
2024/03/13 13:16:09;;;;;;;23.25;18.02;;;;;;;-146.18;100.00;67994.34;10452400;27;20042;-75
2024/03/13 13:21:06;;;;;;;23.13;17.70;;;;;;;-146.18;100.00;67994.34;10457118;27;20118;-75
2024/03/13 13:26:04;;;;;;;23.23;18.42;;;;;;;-146.18;100.00;67994.34;10469230;27;20039;-75
2024/03/13 13:31:00;;;;;;;22.65;17.77;;;;;;;-146.18;100.00;67994.34;10458769;27;20402;-75
2024/03/13 13:35:57;;;;;;;24.52;17.08;;;;;;;-146.18;100.00;67994.34;10445808;27;20043;-75
2024/03/13 13:40:53;;;;;;;20.90;17.08;;;;;;;-146.18;100.00;67994.34;10456932;27;20482;-75
2024/03/13 13:45:51;;;;;;;19.33;16.65;;;;;;;-146.18;100.00;67994.34;10454390;27;20050;-75
2024/03/13 13:50:50;;;;;;;20.42;16.58;;;;;;;-146.18;100.00;67994.34;10450438;27;20043;-78
2024/03/13 13:55:46;;;;;;;19.15;16.33;;;;;;;-146.18;100.00;67994.34;10454682;27;20058;-75
2024/03/13 14:00:43;;;;;;;20.35;17.15;;;;;;;-146.18;100.00;67994.34;10450732;27;20421;-76
2024/03/13 14:05:39;;;;;;;20.17;17.38;;;;;;;-146.18;100.00;67994.34;10455501;27;20510;-75
2024/03/13 14:10:40;;;;;;;20.80;16.60;;;;;;;-146.18;100.00;67994.34;10443221;27;20053;-75
2024/03/13 14:15:37;;;;;;;21.67;16.83;;;;;;;-146.18;100.00;67994.34;10445468;27;20124;-75
2024/03/13 14:20:34;;;;;;;25.98;17.23;;;;;;;-146.18;100.00;67994.34;10454577;27;20542;-75
2024/03/13 14:25:30;;;;;;;21.70;18.38;;;;;;;-146.18;100.00;67994.34;10445663;27;20047;-75
2024/03/13 14:30:27;;;;;;;21.00;17.02;;;;;;;-146.18;100.00;67994.34;10434328;27;20043;-75
2024/03/13 14:35:24;;;;;;;24.13;18.90;;;;;;;-146.18;100.00;67994.34;10443663;27;20146;-75
2024/03/13 14:40:22;;;;;;;24.55;20.40;;;;;;;-146.18;100.00;67994.34;10442137;27;20054;-77
2024/03/13 14:45:19;;;;;;;24.45;19.13;;;;;;;-146.18;100.00;67994.34;10456799;27;20411;-77
2024/03/13 14:50:16;;;;;;;25.65;20.58;;;;;;;-146.18;100.00;67994.34;10456217;27;20065;-76
2024/03/13 14:55:13;;;;;;;26.88;22.08;;;;;;;-146.18;100.00;67994.34;10459491;27;20126;-76
2024/03/13 15:00:11;;;;;;;27.33;21.38;;;;;;;-146.18;100.00;67994.34;10457027;27;20054;-77
2024/03/13 15:05:08;;;;;;;24.95;20.67;;;;;;;-146.18;100.00;67994.34;10465181;27;20043;-76
2024/03/13 15:10:05;;;;;;;24.52;21.65;;;;;;;-146.18;100.00;67994.34;10454966;27;20072;-76
2024/03/13 15:15:02;;;;;;;25.13;20.35;;;;;;;-146.18;100.00;67994.34;10463243;27;20054;-77
2024/03/13 15:19:59;;;;;;;24.42;19.35;;;;;;;-146.18;100.00;67994.34;10452439;27;20072;-77
2024/03/13 15:24:57;;;;;;;26.30;19.58;;;;;;;-146.18;100.00;67994.34;10455637;27;20046;-77
2024/03/13 15:29:54;;;;;;;28.90;20.67;;;;;;;-146.18;100.00;67994.34;10463823;27;20035;-76
2024/03/13 15:34:50;;;;;;;26.98;20.40;;;;;;;-146.18;100.00;67994.34;10443526;27;20131;-76
2024/03/13 15:39:47;;;;;;;27.23;20.65;;;;;;;-146.18;100.00;67994.34;10446050;27;20100;-76
2024/03/13 15:44:43;;;;;;;25.67;21.83;;;;;;;-146.18;100.00;67994.34;10454799;27;20511;-77
2024/03/13 15:49:40;;;;;;;26.58;20.73;;;;;;;-146.18;100.00;67994.34;10467205;27;20102;-75
2024/03/13 15:54:36;;;;;;;28.15;20.73;;;;;;;-146.18;100.00;67994.34;10460939;27;20115;-75
2024/03/13 15:59:34;;;;;;;24.88;20.88;;;;;;;-146.18;100.00;67994.34;10451861;27;20085;-76
2024/03/13 16:04:30;;;;;;;31.98;21.77;;;;;;;-146.18;100.00;67994.34;10447182;27;20043;-75
2024/03/13 16:09:27;;;;;;;27.98;21.83;;;;;;;-146.18;100.00;67994.34;10461563;27;20069;-75
2024/03/13 16:14:24;;;;;;;23.63;20.73;;;;;;;-146.18;100.00;67994.34;10466424;27;20045;-75
2024/03/13 16:19:21;;;;;;;25.27;20.35;;;;;;;-146.18;100.00;67994.34;10451295;27;20433;-75
2024/03/13 16:24:17;;;;;;;28.92;21.25;;;;;;;-146.18;100.00;67994.34;10456542;27;20039;-76
2024/03/13 16:29:14;;;;;;;25.33;20.17;;;;;;;-146.18;100.00;67994.34;10460057;27;20066;-74
2024/03/13 16:34:11;;;;;;;27.55;18.98;;;;;;;-146.18;100.00;67994.34;10452388;27;20126;-74
2024/03/13 16:39:09;;;;;;;21.63;17.67;;;;;;;-146.18;100.00;67994.34;10453993;27;20043;-74
2024/03/13 16:44:05;;;;;;;20.38;17.80;;;;;;;-146.18;100.00;67994.34;10443744;27;20074;-77
2024/03/13 16:49:03;;;;;;;21.67;18.60;;;;;;;-146.18;100.00;67994.34;10436737;27;20071;-77
2024/03/13 16:54:00;;;;;;;22.33;18.35;;;;;;;-146.18;100.00;67994.34;10445256;27;20049;-76
2024/03/13 16:58:57;;;;;;;21.38;18.35;;;;;;;-146.18;100.00;67994.34;10455125;27;20053;-74
2024/03/13 17:03:53;;;;;;;22.27;18.90;;;;;;;-146.18;100.00;67994.34;10468131;27;20046;-77
2024/03/13 17:08:50;;;;;;;22.10;19.05;;;;;;;-146.18;100.00;67994.34;10456333;27;20050;-76
2024/03/13 17:13:51;;;;;;;26.75;19.10;;;;;;;-146.18;100.00;67994.34;10442096;27;20031;-74
2024/03/13 17:18:47;;;;;;;21.13;18.85;;;;;;;-146.18;100.00;67994.34;10449572;27;20039;-76
2024/03/13 17:23:44;;;;;;;22.35;17.10;;;;;;;-146.18;100.00;67994.34;10444372;27;20139;-78
2024/03/13 17:28:45;;;;;;;25.15;18.60;;;;;;;-146.18;100.00;67994.34;10444485;27;20047;-77
2024/03/13 17:33:41;;;;;;;20.02;17.95;;;;;;;-146.18;100.00;67994.34;10463559;27;20494;-76
2024/03/13 17:38:38;;;;;;;22.70;18.70;;;;;;;-146.18;100.00;67994.34;10434132;27;21243;-76
2024/03/13 17:43:35;;;;;;;22.85;18.48;;;;;;;-146.18;100.00;67994.34;10438561;27;20045;-76
2024/03/13 17:48:31;;;;;;;19.52;17.50;;;;;;;-146.18;100.00;67994.34;10440671;27;20056;-74
2024/03/13 17:53:28;;;;;;;22.13;17.77;;;;;;;-146.18;100.00;67994.34;10446105;27;20050;-75
2024/03/13 17:58:24;;;;;;;19.85;17.63;;;;;;;-146.18;100.00;67994.34;10446694;27;20039;-75
2024/03/13 18:03:21;;;;;;;19.38;17.38;;;;;;;-146.18;100.00;67994.34;10445043;27;20686;-75
2024/03/13 18:08:17;;;;;;;19.48;17.15;;;;;;;-146.18;100.00;67994.34;10452445;27;20563;-73
2024/03/13 18:13:14;;;;;;;21.40;18.20;;;;;;;-146.18;100.00;67994.34;10441598;27;20039;-75
2024/03/13 18:18:11;;;;;;;21.75;19.10;;;;;;;-146.18;100.00;67994.34;10440370;27;20039;-75
2024/03/13 18:23:08;;;;;;;20.13;17.75;;;;;;;-146.18;100.00;67994.34;10456889;27;20039;-74
2024/03/13 18:28:04;;;;;;;21.42;18.27;;;;;;;-146.18;100.00;67994.34;10455187;27;20044;-72
2024/03/13 18:33:01;;;;;;;20.02;17.58;;;;;;;-146.18;100.00;67994.34;10438529;27;20039;-75
2024/03/13 18:37:58;;;;;;;22.35;17.80;;;;;;;-146.18;100.00;67994.34;10461425;27;20051;-75
2024/03/13 18:42:54;;;;;;;20.92;17.92;;;;;;;-146.18;100.00;67994.34;10452303;27;20039;-75
2024/03/13 18:47:52;;;;;;;18.33;16.38;;;;;;;-146.18;100.00;67994.34;10459819;27;20053;-77
2024/03/13 18:52:50;;;;;;;20.48;18.02;;;;;;;-146.18;100.00;67994.34;10447174;27;20067;-75
2024/03/13 18:57:46;;;;;;;18.48;16.55;;;;;;;-146.18;100.00;67994.34;10436662;27;20096;-74
2024/03/13 19:02:43;;;;;;;24.85;18.67;;;;;;;-146.18;100.00;67994.34;10445912;27;20051;-76
2024/03/13 19:07:40;;;;;;;30.42;19.35;;;;;;;-146.18;100.00;67994.34;10452314;27;20035;-75
2024/03/13 19:12:37;;;;;;;21.02;17.75;;;;;;;-146.18;100.00;67994.34;10460078;27;20050;-76
2024/03/13 19:17:34;;;;;;;20.63;17.25;;;;;;;-146.18;100.00;67994.34;10460322;27;20078;-75
2024/03/13 19:22:30;;;;;;;18.23;16.30;;;;;;;-146.18;100.00;67994.34;10448976;27;20050;-75
2024/03/13 19:27:27;;;;;;;23.63;18.15;;;;;;;-146.18;100.00;67994.34;10446177;27;20039;-75
2024/03/13 19:32:25;;;;;;;21.83;18.15;;;;;;;-146.18;100.00;67994.34;10446084;27;20134;-77
2024/03/13 19:37:22;;;;;;;22.95;18.88;;;;;;;-146.18;100.00;67994.34;10459592;27;20047;-76
2024/03/13 19:42:18;;;;;;;21.05;17.95;;;;;;;-146.18;100.00;67994.34;10456588;27;20039;-75
2024/03/13 19:47:15;;;;;;;20.50;18.23;;;;;;;-146.18;100.00;67994.34;10458941;27;20046;-75
2024/03/13 19:52:11;;;;;;;27.08;20.00;;;;;;;-146.18;100.00;67994.34;10453485;27;20043;-75
2024/03/13 19:57:08;;;;;;;22.60;18.58;;;;;;;-146.18;100.00;67994.34;10458027;27;20067;-75
2024/03/13 20:02:04;;;;;;;25.35;19.88;;;;;;;-146.18;100.00;67994.34;10451296;27;20035;-75
2024/03/13 20:07:01;;;;;;;25.13;19.63;;;;;;;-146.18;100.00;67994.34;10459727;27;20043;-74
2024/03/13 20:11:57;;;;;;;26.30;19.85;;;;;;;-146.18;100.00;67994.34;10449708;27;20038;-73
2024/03/13 20:16:54;;;;;;;27.25;21.02;;;;;;;-146.18;100.00;67994.34;10454359;27;20043;-74
2024/03/13 20:21:52;;;;;;;27.85;20.42;;;;;;;-146.18;100.00;67994.34;10464227;27;20046;-74
2024/03/13 20:26:48;;;;;;;22.35;19.20;;;;;;;-146.18;100.00;67994.34;10450542;27;20043;-75
2024/03/13 20:31:46;;;;;;;25.75;19.85;;;;;;;-146.18;100.00;67994.34;10448246;27;20070;-76
2024/03/13 20:36:42;;;;;;;22.77;18.15;;;;;;;-146.18;100.00;67994.34;10449891;27;20433;-76
2024/03/13 20:41:39;;;;;;;23.75;19.15;;;;;;;-146.18;100.00;67994.34;10448610;27;20046;-75
2024/03/13 20:46:36;;;;;;;29.23;18.67;;;;;;;-146.18;100.00;67994.34;10450555;27;20091;-75
2024/03/13 20:51:34;;;;;;;25.33;17.65;;;;;;;-146.18;100.00;67994.34;10445671;27;20069;-74
2024/03/13 20:56:31;;;;;;;27.13;18.73;;;;;;;-146.18;100.00;67994.34;10451184;27;20475;-75
2024/03/13 21:01:29;;;;;;;22.92;18.17;;;;;;;-146.18;100.00;67994.34;10449068;27;20051;-75
2024/03/13 21:06:26;;;;;;;27.48;19.38;;;;;;;-146.18;100.00;67994.34;10448271;27;20510;-75
2024/03/13 21:11:22;;;;;;;24.63;17.75;;;;;;;-146.18;100.00;67994.34;10445271;27;20048;-75
2024/03/13 21:16:21;;;;;;;24.73;19.33;;;;;;;-146.18;100.00;67994.34;10462350;27;20054;-74
2024/03/13 21:21:21;;;;;;;22.08;18.70;;;;;;;-146.18;100.00;67994.34;10454337;27;20042;-75
2024/03/13 21:26:18;;;;;;;23.15;17.35;;;;;;;-146.18;100.00;67994.34;10451036;27;20075;-76
2024/03/13 21:31:15;;;;;;;24.92;18.08;;;;;;;-146.18;100.00;67994.34;10461509;27;20049;-75
2024/03/13 21:36:11;;;;;;;29.30;19.40;;;;;;;-146.18;100.00;67994.34;10452802;27;20797;-78
2024/03/13 21:41:10;;;;;;;26.55;18.83;;;;;;;-146.18;100.00;67994.34;10453325;27;20049;-73
2024/03/13 21:46:06;;;;;;;23.45;18.52;;;;;;;-146.18;100.00;67994.34;10449717;27;20043;-77
2024/03/13 21:51:03;;;;;;;26.55;20.27;;;;;;;-146.18;100.00;67994.34;10453945;27;20418;-77
2024/03/13 21:56:00;;;;;;;26.85;20.45;;;;;;;-146.18;100.00;67994.34;10447332;27;20285;-77
2024/03/13 22:00:58;;;;;;;27.83;20.27;;;;;;;-146.18;100.00;67994.34;10458897;27;20039;-77
2024/03/13 22:05:55;;;;;;;28.83;22.35;;;;;;;-146.18;100.00;67994.34;10451295;27;20051;-77
2024/03/13 22:10:52;;;;;;;27.55;20.48;;;;;;;-146.18;100.00;67994.34;10440451;27;20038;-76